Cornion — CQMH — position and weather

sailwx.info

Track history (hours):
 
Tides and Currents Weather Stations Pressure Air Temp Water Temp Dewpoint Dewpoint Depression Visibility Wind Speed Wind Dir Waves Ship Positions

Cornion

Last reported at 2017-May-16 23:04 UTC. Time now 2017-May-23 17:04 UTC.
Position N 42°04' W 009°17'.

Length 90 m; draft 4.3 m.

Type: Cargo ship. MMSI: 255803370.

Date/timePositionNaut miles runAvg speedWind from/ knotsBaromVisibWave heightAir tempDewpointWater temp
2017-May-16 23:04N 42°04' W 009°17'1 9.5
2017-May-16 23:00N 42°03' W 009°16'14 9.3
2017-May-16 21:26N 41°50' W 009°09'4 9.1
2017-May-16 21:00N 41°46' W 009°06'4 9.0
2017-May-16 20:31N 41°42' W 009°04'4 8.8
2017-May-16 20:01N 41°38' W 009°02'5 8.6
2017-May-16 19:28N 41°34' W 008°59'4 8.7
2017-May-16 19:00N 41°30' W 008°57'4 8.7
2017-May-16 18:30N 41°26' W 008°54'4 8.9
2017-May-16 18:00N 41°22' W 008°52'4 9.0
2017-May-16 17:31N 41°18' W 008°50'7 9.0
2017-May-16 16:44N 41°11' W 008°47'  
2017-May-12 21:21N 46°03' W 002°01'5 9.6
2017-May-12 20:51N 46°05' W 001°55'3 9.7
2017-May-12 20:31N 46°06' W 001°50'6 9.7
2017-May-12 19:55N 46°08' W 001°43'410.2
2017-May-12 19:30N 46°08' W 001°37'510.6
2017-May-12 19:00N 46°07' W 001°29'510.6
2017-May-12 18:30N 46°06' W 001°22'5 9.5
2017-May-12 18:01N 46°04' W 001°16'510.2
2017-May-12 17:31N 46°00' W 001°11'4 8.9
2017-May-12 17:01N 45°58' W 001°05'4 7.3
2017-May-12 16:30N 45°58' W 001°00'3 5.7
2017-May-12 16:00N 45°55' W 000°60'  
2017-May-08 13:51N 45°57' W 000°57'2 6.3
2017-May-08 13:30N 45°55' W 000°59'3 5.8
2017-May-08 12:58N 45°58' W 001°02'5 9.9
2017-May-08 12:30N 45°59' W 001°08'510.4
2017-May-08 12:00N 46°03' W 001°13'1 1.1
2017-May-08 11:30N 46°04' W 001°13'0 0.0
2017-May-08 11:00N 46°04' W 001°13'0 0.0
2017-May-08 10:30N 46°04' W 001°13'0 0.1
2017-May-08 10:00N 46°04' W 001°13'0 0.2
2017-May-08 09:30N 46°04' W 001°14'0 0.0
2017-May-08 09:00N 46°04' W 001°14'0 0.1
2017-May-08 08:30N 46°04' W 001°14'0 0.0
2017-May-08 08:00N 46°04' W 001°14'0 0.0
2017-May-08 07:30N 46°04' W 001°14'0 0.0
2017-May-08 06:48N 46°04' W 001°14'0 0.0
2017-May-08 06:27N 46°04' W 001°14'0 0.0
2017-May-08 06:00N 46°04' W 001°14'0 0.0
2017-May-08 05:30N 46°04' W 001°14'0 0.0
2017-May-08 05:00N 46°04' W 001°14'0 0.0
2017-May-08 04:30N 46°04' W 001°14'0 0.0
2017-May-08 04:00N 46°04' W 001°14'0 0.0
2017-May-08 03:30N 46°04' W 001°14'0 0.0
2017-May-08 03:00N 46°04' W 001°14'0 0.0
2017-May-08 02:30N 46°04' W 001°14'0 0.0
2017-May-08 02:00N 46°04' W 001°14'0 0.0
2017-May-08 01:30N 46°04' W 001°13'0 0.0
2017-May-08 00:54N 46°04' W 001°13'0 0.0
2017-May-08 00:30N 46°04' W 001°13'0 0.0
2017-May-08 00:00N 46°04' W 001°13'0 0.0
2017-May-07 23:30N 46°04' W 001°13'0 0.0
2017-May-07 22:57N 46°04' W 001°13'0 0.0
2017-May-07 22:30N 46°04' W 001°13'0 0.0
2017-May-07 22:00N 46°04' W 001°13'0 0.0
2017-May-07 21:27N 46°04' W 001°13'0 0.0
2017-May-07 21:00N 46°04' W 001°13'0 0.0
2017-May-07 20:30N 46°04' W 001°13'0 0.0
2017-May-07 20:00N 46°04' W 001°13'0 0.0
2017-May-07 19:30N 46°04' W 001°13'0 0.1
2017-May-07 19:00N 46°04' W 001°14'0 0.1
2017-May-07 18:30N 46°04' W 001°14'0 0.0
2017-May-07 18:00N 46°04' W 001°14'0 0.1
2017-May-07 17:30N 46°04' W 001°14'0 0.1
2017-May-07 17:00N 46°04' W 001°14'0 0.1
2017-May-07 16:30N 46°04' W 001°13'0 0.0
2017-May-07 16:00N 46°04' W 001°13'0 0.0
2017-May-07 15:27N 46°04' W 001°13'0 0.0
2017-May-07 15:00N 46°04' W 001°13'0 0.0
2017-May-07 14:00N 46°04' W 001°13'0 0.0
2017-May-07 13:30N 46°04' W 001°13'0 0.0
2017-May-07 13:00N 46°04' W 001°13'0 0.0
2017-May-07 12:27N 46°04' W 001°13'0 0.0
2017-May-07 12:00N 46°04' W 001°13'0 0.0
2017-May-07 11:30N 46°04' W 001°13'0 0.0
2017-May-07 11:00N 46°04' W 001°13'0 0.0
2017-May-07 10:30N 46°04' W 001°13'0 0.0
2017-May-07 10:00N 46°04' W 001°13'0 0.0
2017-May-07 09:30N 46°04' W 001°13'0 0.0
2017-May-07 09:00N 46°04' W 001°13'0 0.0
2017-May-07 08:30N 46°04' W 001°13'0 0.0
2017-May-07 08:00N 46°04' W 001°13'0 0.0
2017-May-07 07:30N 46°04' W 001°13'0 0.1
2017-May-07 07:00N 46°04' W 001°14'0 0.1
2017-May-07 06:30N 46°04' W 001°14'0 0.0
2017-May-07 06:00N 46°04' W 001°14'0 0.0
2017-May-07 05:30N 46°04' W 001°14'0 0.0
2017-May-07 05:00N 46°04' W 001°14'0 0.2
2017-May-07 04:30N 46°04' W 001°14'0 0.1
2017-May-07 04:00N 46°04' W 001°13'0 0.0
2017-May-07 03:30N 46°04' W 001°13'0 0.0
2017-May-07 03:00N 46°04' W 001°13'0 0.0
2017-May-07 02:27N 46°04' W 001°13'0 0.0
2017-May-07 02:00N 46°04' W 001°13'0 0.0
2017-May-07 01:30N 46°04' W 001°13'0 0.0
2017-May-07 01:00N 46°04' W 001°13'0 0.0
2017-May-07 00:30N 46°04' W 001°13'0 0.0
2017-May-07 00:00N 46°04' W 001°13'0 0.0
2017-May-06 23:30N 46°04' W 001°13'  
Track history (hours):
 
Tides and Currents Weather Stations Pressure Air Temp Water Temp Dewpoint Dewpoint Depression Visibility Wind Speed Wind Dir Waves Ship Positions

Cornion

Last reported at 2017-May-16 23:04 UTC. Time now 2017-May-23 17:04 UTC.
Position N 42°04' W 009°17'.

Length 90 m; draft 4.3 m.

Type: Cargo ship. MMSI: 255803370.

Date/timePositionNaut miles runAvg speedWind from/ knotsBaromVisibWave heightAir tempDewpointWater temp
2017-May-16 23:04N 42°04' W 009°17'1 9.5
2017-May-16 23:00N 42°03' W 009°16'14 9.3
2017-May-16 21:26N 41°50' W 009°09'4 9.1
2017-May-16 21:00N 41°46' W 009°06'4 9.0
2017-May-16 20:31N 41°42' W 009°04'4 8.8
2017-May-16 20:01N 41°38' W 009°02'5 8.6
2017-May-16 19:28N 41°34' W 008°59'4 8.7
2017-May-16 19:00N 41°30' W 008°57'4 8.7
2017-May-16 18:30N 41°26' W 008°54'4 8.9
2017-May-16 18:00N 41°22' W 008°52'4 9.0
2017-May-16 17:31N 41°18' W 008°50'7 9.0
2017-May-16 16:44N 41°11' W 008°47'  
2017-May-12 21:21N 46°03' W 002°01'5 9.6
2017-May-12 20:51N 46°05' W 001°55'3 9.7
2017-May-12 20:31N 46°06' W 001°50'6 9.7
2017-May-12 19:55N 46°08' W 001°43'410.2
2017-May-12 19:30N 46°08' W 001°37'510.6
2017-May-12 19:00N 46°07' W 001°29'510.6
2017-May-12 18:30N 46°06' W 001°22'5 9.5
2017-May-12 18:01N 46°04' W 001°16'510.2
2017-May-12 17:31N 46°00' W 001°11'4 8.9
2017-May-12 17:01N 45°58' W 001°05'4 7.3
2017-May-12 16:30N 45°58' W 001°00'3 5.7
2017-May-12 16:00N 45°55' W 000°60'  
2017-May-08 13:51N 45°57' W 000°57'2 6.3
2017-May-08 13:30N 45°55' W 000°59'3 5.8
2017-May-08 12:58N 45°58' W 001°02'5 9.9
2017-May-08 12:30N 45°59' W 001°08'510.4
2017-May-08 12:00N 46°03' W 001°13'1 1.1
2017-May-08 11:30N 46°04' W 001°13'0 0.0
2017-May-08 11:00N 46°04' W 001°13'0 0.0
2017-May-08 10:30N 46°04' W 001°13'0 0.1
2017-May-08 10:00N 46°04' W 001°13'0 0.2
2017-May-08 09:30N 46°04' W 001°14'0 0.0
2017-May-08 09:00N 46°04' W 001°14'0 0.1
2017-May-08 08:30N 46°04' W 001°14'0 0.0
2017-May-08 08:00N 46°04' W 001°14'0 0.0
2017-May-08 07:30N 46°04' W 001°14'0 0.0
2017-May-08 06:48N 46°04' W 001°14'0 0.0
2017-May-08 06:27N 46°04' W 001°14'0 0.0
2017-May-08 06:00N 46°04' W 001°14'0 0.0
2017-May-08 05:30N 46°04' W 001°14'0 0.0
2017-May-08 05:00N 46°04' W 001°14'0 0.0
2017-May-08 04:30N 46°04' W 001°14'0 0.0
2017-May-08 04:00N 46°04' W 001°14'0 0.0
2017-May-08 03:30N 46°04' W 001°14'0 0.0
2017-May-08 03:00N 46°04' W 001°14'0 0.0
2017-May-08 02:30N 46°04' W 001°14'0 0.0
2017-May-08 02:00N 46°04' W 001°14'0 0.0
2017-May-08 01:30N 46°04' W 001°13'0 0.0
2017-May-08 00:54N 46°04' W 001°13'0 0.0
2017-May-08 00:30N 46°04' W 001°13'0 0.0
2017-May-08 00:00N 46°04' W 001°13'0 0.0
2017-May-07 23:30N 46°04' W 001°13'0 0.0
2017-May-07 22:57N 46°04' W 001°13'0 0.0
2017-May-07 22:30N 46°04' W 001°13'0 0.0
2017-May-07 22:00N 46°04' W 001°13'0 0.0
2017-May-07 21:27N 46°04' W 001°13'0 0.0
2017-May-07 21:00N 46°04' W 001°13'0 0.0
2017-May-07 20:30N 46°04' W 001°13'0 0.0
2017-May-07 20:00N 46°04' W 001°13'0 0.0
2017-May-07 19:30N 46°04' W 001°13'0 0.1
2017-May-07 19:00N 46°04' W 001°14'0 0.1
2017-May-07 18:30N 46°04' W 001°14'0 0.0
2017-May-07 18:00N 46°04' W 001°14'0 0.1
2017-May-07 17:30N 46°04' W 001°14'0 0.1
2017-May-07 17:00N 46°04' W 001°14'0 0.1
2017-May-07 16:30N 46°04' W 001°13'0 0.0
2017-May-07 16:00N 46°04' W 001°13'0 0.0
2017-May-07 15:27N 46°04' W 001°13'0 0.0
2017-May-07 15:00N 46°04' W 001°13'0 0.0
2017-May-07 14:00N 46°04' W 001°13'0 0.0
2017-May-07 13:30N 46°04' W 001°13'0 0.0
2017-May-07 13:00N 46°04' W 001°13'0 0.0
2017-May-07 12:27N 46°04' W 001°13'0 0.0
2017-May-07 12:00N 46°04' W 001°13'0 0.0
2017-May-07 11:30N 46°04' W 001°13'0 0.0
2017-May-07 11:00N 46°04' W 001°13'0 0.0
2017-May-07 10:30N 46°04' W 001°13'0 0.0
2017-May-07 10:00N 46°04' W 001°13'0 0.0
2017-May-07 09:30N 46°04' W 001°13'0 0.0
2017-May-07 09:00N 46°04' W 001°13'0 0.0
2017-May-07 08:30N 46°04' W 001°13'0 0.0
2017-May-07 08:00N 46°04' W 001°13'0 0.0
2017-May-07 07:30N 46°04' W 001°13'0 0.1
2017-May-07 07:00N 46°04' W 001°14'0 0.1
2017-May-07 06:30N 46°04' W 001°14'0 0.0
2017-May-07 06:00N 46°04' W 001°14'0 0.0
2017-May-07 05:30N 46°04' W 001°14'0 0.0
2017-May-07 05:00N 46°04' W 001°14'0 0.2
2017-May-07 04:30N 46°04' W 001°14'0 0.1
2017-May-07 04:00N 46°04' W 001°13'0 0.0
2017-May-07 03:30N 46°04' W 001°13'0 0.0
2017-May-07 03:00N 46°04' W 001°13'0 0.0
2017-May-07 02:27N 46°04' W 001°13'0 0.0
2017-May-07 02:00N 46°04' W 001°13'0 0.0
2017-May-07 01:30N 46°04' W 001°13'0 0.0
2017-May-07 01:00N 46°04' W 001°13'0 0.0
2017-May-07 00:30N 46°04' W 001°13'0 0.0
2017-May-07 00:00N 46°04' W 001°13'0 0.0
2017-May-06 23:30N 46°04' W 001°13'  

Dump ship's entire track history